Moscow, Vermont
Current Conditions -  °F | °C
As of 2:51 AM on Monday 24 Nov 2014 (Local Time) from KMPV Reporting Station
Clear Clear  
Wind Chill: 41°   Ceiling: Unl
Heat Index: 44°   Visibility: 10mi
Dew Point: 31°   Wind: 6mph
Humidity: 60%   Direction: 210°SSW
Pressure: 29.95"   Gusts: NA
Location:  44.44°N, 72.72°W
Report Text: KMPV 240751Z AUTO 21005KT 10SM CLR 07/M01 A2995 RMK AO2 SLP147 T00671006
Loading
Personal Weather Stations






























Interactive Weather Map New forecast layout! Learn more

10-Day Weather Forecast

Advertisements
Track Severe Weather on mobile